sensor_id;sensor_type;location;lat;lon;timestamp;P1;durP1;ratioP1;P2;durP2;ratioP2
57319;SDS011;43158;51.026;18.190;2023-03-14T00:02:09;9.30;;;5.70;;
57319;SDS011;43158;51.026;18.190;2023-03-14T00:04:35;6.80;;;4.80;;
57319;SDS011;43158;51.026;18.190;2023-03-14T00:07:02;8.00;;;4.90;;
57319;SDS011;43158;51.026;18.190;2023-03-14T00:09:28;6.70;;;5.00;;
57319;SDS011;43158;51.026;18.190;2023-03-14T00:11:55;5.00;;;3.50;;
57319;SDS011;43158;51.026;18.190;2023-03-14T00:14:22;5.10;;;3.40;;
57319;SDS011;43158;51.026;18.190;2023-03-14T00:16:48;5.90;;;4.20;;
57319;SDS011;43158;51.026;18.190;2023-03-14T00:19:14;7.10;;;4.20;;
57319;SDS011;43158;51.026;18.190;2023-03-14T00:21:40;6.70;;;4.20;;
57319;SDS011;43158;51.026;18.190;2023-03-14T00:24:07;5.30;;;3.80;;
57319;SDS011;43158;51.026;18.190;2023-03-14T00:26:33;6.40;;;3.60;;
57319;SDS011;43158;51.026;18.190;2023-03-14T00:29:00;6.10;;;4.20;;
57319;SDS011;43158;51.026;18.190;2023-03-14T00:31:26;7.80;;;3.90;;
57319;SDS011;43158;51.026;18.190;2023-03-14T00:33:52;6.80;;;3.50;;
57319;SDS011;43158;51.026;18.190;2023-03-14T00:36:18;6.70;;;3.80;;
57319;SDS011;43158;51.026;18.190;2023-03-14T00:38:49;5.00;;;3.80;;
57319;SDS011;43158;51.026;18.190;2023-03-14T00:41:17;6.80;;;3.90;;
57319;SDS011;43158;51.026;18.190;2023-03-14T00:43:45;5.10;;;3.70;;
57319;SDS011;43158;51.026;18.190;2023-03-14T00:46:11;4.70;;;3.00;;
57319;SDS011;43158;51.026;18.190;2023-03-14T00:48:38;4.10;;;2.90;;
57319;SDS011;43158;51.026;18.190;2023-03-14T00:51:05;4.30;;;3.50;;
57319;SDS011;43158;51.026;18.190;2023-03-14T00:53:35;3.70;;;2.60;;
57319;SDS011;43158;51.026;18.190;2023-03-14T00:56:03;6.70;;;3.50;;
57319;SDS011;43158;51.026;18.190;2023-03-14T00:58:33;6.10;;;3.50;;
57319;SDS011;43158;51.026;18.190;2023-03-14T01:01:10;4.70;;;3.60;;
57319;SDS011;43158;51.026;18.190;2023-03-14T01:03:38;5.80;;;3.70;;
57319;SDS011;43158;51.026;18.190;2023-03-14T01:06:13;10.10;;;5.10;;
57319;SDS011;43158;51.026;18.190;2023-03-14T01:08:40;4.10;;;3.20;;
57319;SDS011;43158;51.026;18.190;2023-03-14T01:11:07;8.10;;;4.60;;
57319;SDS011;43158;51.026;18.190;2023-03-14T01:13:36;7.80;;;4.70;;
57319;SDS011;43158;51.026;18.190;2023-03-14T01:16:03;5.10;;;3.60;;
57319;SDS011;43158;51.026;18.190;2023-03-14T01:18:30;6.60;;;3.70;;
57319;SDS011;43158;51.026;18.190;2023-03-14T01:20:57;6.50;;;3.40;;
57319;SDS011;43158;51.026;18.190;2023-03-14T01:23:23;5.80;;;3.40;;
57319;SDS011;43158;51.026;18.190;2023-03-14T01:25:49;5.00;;;3.70;;
57319;SDS011;43158;51.026;18.190;2023-03-14T01:28:15;5.60;;;3.90;;
57319;SDS011;43158;51.026;18.190;2023-03-14T01:30:41;4.70;;;3.60;;
57319;SDS011;43158;51.026;18.190;2023-03-14T01:33:07;4.50;;;3.40;;
57319;SDS011;43158;51.026;18.190;2023-03-14T01:35:33;5.90;;;3.70;;
57319;SDS011;43158;51.026;18.190;2023-03-14T01:38:01;4.70;;;3.20;;
57319;SDS011;43158;51.026;18.190;2023-03-14T01:40:27;5.00;;;3.50;;
57319;SDS011;43158;51.026;18.190;2023-03-14T01:43:05;4.80;;;4.20;;
57319;SDS011;43158;51.026;18.190;2023-03-14T01:48:24;5.70;;;3.50;;
57319;SDS011;43158;51.026;18.190;2023-03-14T01:50:51;7.60;;;3.30;;
57319;SDS011;43158;51.026;18.190;2023-03-14T01:53:17;6.80;;;3.90;;
57319;SDS011;43158;51.026;18.190;2023-03-14T01:55:47;5.30;;;3.50;;
57319;SDS011;43158;51.026;18.190;2023-03-14T01:58:14;7.80;;;3.50;;
57319;SDS011;43158;51.026;18.190;2023-03-14T02:00:42;5.70;;;3.10;;
57319;SDS011;43158;51.026;18.190;2023-03-14T02:03:10;7.10;;;3.30;;
57319;SDS011;43158;51.026;18.190;2023-03-14T02:05:38;4.50;;;3.40;;
57319;SDS011;43158;51.026;18.190;2023-03-14T02:08:08;3.80;;;3.20;;
57319;SDS011;43158;51.026;18.190;2023-03-14T02:10:43;4.10;;;3.40;;
57319;SDS011;43158;51.026;18.190;2023-03-14T02:13:10;7.90;;;4.10;;
57319;SDS011;43158;51.026;18.190;2023-03-14T02:15:38;6.20;;;3.90;;
57319;SDS011;43158;51.026;18.190;2023-03-14T02:18:05;9.30;;;3.50;;
57319;SDS011;43158;51.026;18.190;2023-03-14T02:20:45;6.30;;;3.80;;
57319;SDS011;43158;51.026;18.190;2023-03-14T02:23:17;6.20;;;3.70;;
57319;SDS011;43158;51.026;18.190;2023-03-14T02:25:52;5.50;;;3.50;;
57319;SDS011;43158;51.026;18.190;2023-03-14T02:28:32;7.00;;;4.10;;
57319;SDS011;43158;51.026;18.190;2023-03-14T02:30:58;7.30;;;4.20;;
57319;SDS011;43158;51.026;18.190;2023-03-14T02:33:24;6.50;;;5.20;;
57319;SDS011;43158;51.026;18.190;2023-03-14T02:36:01;7.10;;;6.10;;
57319;SDS011;43158;51.026;18.190;2023-03-14T02:40:59;7.10;;;4.50;;
57319;SDS011;43158;51.026;18.190;2023-03-14T02:43:26;6.40;;;4.80;;
57319;SDS011;43158;51.026;18.190;2023-03-14T02:45:52;6.20;;;5.30;;
57319;SDS011;43158;51.026;18.190;2023-03-14T02:48:21;8.30;;;7.10;;
57319;SDS011;43158;51.026;18.190;2023-03-14T02:50:52;8.30;;;6.50;;
57319;SDS011;43158;51.026;18.190;2023-03-14T02:53:27;5.30;;;4.30;;
57319;SDS011;43158;51.026;18.190;2023-03-14T02:55:58;4.40;;;3.80;;
57319;SDS011;43158;51.026;18.190;2023-03-14T02:58:26;5.60;;;5.00;;
57319;SDS011;43158;51.026;18.190;2023-03-14T03:00:53;6.20;;;3.70;;
57319;SDS011;43158;51.026;18.190;2023-03-14T03:03:19;5.50;;;4.00;;
57319;SDS011;43158;51.026;18.190;2023-03-14T03:05:50;10.60;;;7.70;;
57319;SDS011;43158;51.026;18.190;2023-03-14T03:08:21;13.80;;;9.50;;
57319;SDS011;43158;51.026;18.190;2023-03-14T03:10:48;11.60;;;8.80;;
57319;SDS011;43158;51.026;18.190;2023-03-14T03:13:15;9.30;;;6.20;;
57319;SDS011;43158;51.026;18.190;2023-03-14T03:15:41;8.10;;;4.50;;
57319;SDS011;43158;51.026;18.190;2023-03-14T03:18:08;7.60;;;4.20;;
57319;SDS011;43158;51.026;18.190;2023-03-14T03:20:34;7.50;;;4.30;;
57319;SDS011;43158;51.026;18.190;2023-03-14T03:23:01;5.40;;;4.80;;
57319;SDS011;43158;51.026;18.190;2023-03-14T03:25:27;7.20;;;5.00;;
57319;SDS011;43158;51.026;18.190;2023-03-14T03:27:54;10.80;;;7.90;;
57319;SDS011;43158;51.026;18.190;2023-03-14T03:30:20;8.30;;;6.40;;
57319;SDS011;43158;51.026;18.190;2023-03-14T03:32:46;11.30;;;7.90;;
57319;SDS011;43158;51.026;18.190;2023-03-14T03:35:13;10.60;;;7.40;;
57319;SDS011;43158;51.026;18.190;2023-03-14T03:37:39;8.90;;;8.00;;
57319;SDS011;43158;51.026;18.190;2023-03-14T03:40:06;7.00;;;5.80;;
57319;SDS011;43158;51.026;18.190;2023-03-14T03:42:33;5.20;;;3.80;;
57319;SDS011;43158;51.026;18.190;2023-03-14T03:45:00;4.60;;;3.30;;
57319;SDS011;43158;51.026;18.190;2023-03-14T03:47:26;7.30;;;3.90;;
57319;SDS011;43158;51.026;18.190;2023-03-14T03:49:53;6.80;;;4.00;;
57319;SDS011;43158;51.026;18.190;2023-03-14T03:52:19;5.00;;;3.70;;
57319;SDS011;43158;51.026;18.190;2023-03-14T03:54:46;4.40;;;2.90;;
57319;SDS011;43158;51.026;18.190;2023-03-14T03:57:12;5.50;;;3.60;;
57319;SDS011;43158;51.026;18.190;2023-03-14T03:59:38;10.70;;;3.90;;
57319;SDS011;43158;51.026;18.190;2023-03-14T04:02:05;4.00;;;3.20;;
57319;SDS011;43158;51.026;18.190;2023-03-14T04:04:32;4.40;;;3.40;;
57319;SDS011;43158;51.026;18.190;2023-03-14T04:06:58;6.20;;;3.40;;
57319;SDS011;43158;51.026;18.190;2023-03-14T04:09:25;7.30;;;6.60;;
57319;SDS011;43158;51.026;18.190;2023-03-14T04:11:51;7.10;;;5.00;;
57319;SDS011;43158;51.026;18.190;2023-03-14T04:14:18;6.20;;;3.90;;
57319;SDS011;43158;51.026;18.190;2023-03-14T04:16:44;8.10;;;5.00;;
57319;SDS011;43158;51.026;18.190;2023-03-14T04:19:11;4.10;;;3.70;;
57319;SDS011;43158;51.026;18.190;2023-03-14T04:21:37;6.20;;;3.90;;
57319;SDS011;43158;51.026;18.190;2023-03-14T04:24:06;5.00;;;3.20;;
57319;SDS011;43158;51.026;18.190;2023-03-14T04:26:32;5.40;;;3.80;;
57319;SDS011;43158;51.026;18.190;2023-03-14T04:28:59;9.50;;;5.80;;
57319;SDS011;43158;51.026;18.190;2023-03-14T04:31:25;9.70;;;6.00;;
57319;SDS011;43158;51.026;18.190;2023-03-14T04:33:51;8.70;;;4.80;;
57319;SDS011;43158;51.026;18.190;2023-03-14T04:36:17;13.30;;;8.00;;
57319;SDS011;43158;51.026;18.190;2023-03-14T04:38:44;16.20;;;11.00;;
57319;SDS011;43158;51.026;18.190;2023-03-14T04:41:10;13.80;;;8.40;;
57319;SDS011;43158;51.026;18.190;2023-03-14T04:43:36;9.70;;;7.30;;
57319;SDS011;43158;51.026;18.190;2023-03-14T04:46:02;7.30;;;5.60;;
57319;SDS011;43158;51.026;18.190;2023-03-14T04:48:28;6.90;;;4.80;;
57319;SDS011;43158;51.026;18.190;2023-03-14T04:50:54;8.00;;;4.70;;
57319;SDS011;43158;51.026;18.190;2023-03-14T04:53:21;8.50;;;4.30;;
57319;SDS011;43158;51.026;18.190;2023-03-14T04:55:50;5.40;;;4.30;;
57319;SDS011;43158;51.026;18.190;2023-03-14T04:58:18;5.50;;;4.00;;
57319;SDS011;43158;51.026;18.190;2023-03-14T05:00:45;4.70;;;3.60;;
57319;SDS011;43158;51.026;18.190;2023-03-14T05:03:11;6.70;;;4.90;;
57319;SDS011;43158;51.026;18.190;2023-03-14T05:05:37;6.30;;;4.70;;
57319;SDS011;43158;51.026;18.190;2023-03-14T05:08:04;7.40;;;4.70;;
57319;SDS011;43158;51.026;18.190;2023-03-14T05:10:30;7.00;;;4.60;;
57319;SDS011;43158;51.026;18.190;2023-03-14T05:12:57;4.90;;;4.00;;
57319;SDS011;43158;51.026;18.190;2023-03-14T05:15:23;8.70;;;4.70;;
57319;SDS011;43158;51.026;18.190;2023-03-14T05:17:49;4.90;;;4.20;;
57319;SDS011;43158;51.026;18.190;2023-03-14T05:20:15;5.10;;;4.60;;
57319;SDS011;43158;51.026;18.190;2023-03-14T05:22:42;4.50;;;3.60;;
57319;SDS011;43158;51.026;18.190;2023-03-14T05:25:09;4.50;;;2.40;;
57319;SDS011;43158;51.026;18.190;2023-03-14T05:27:35;5.10;;;2.40;;
57319;SDS011;43158;51.026;18.190;2023-03-14T05:30:03;3.30;;;2.80;;
57319;SDS011;43158;51.026;18.190;2023-03-14T05:32:31;3.10;;;2.70;;
57319;SDS011;43158;51.026;18.190;2023-03-14T05:34:57;4.50;;;3.10;;
57319;SDS011;43158;51.026;18.190;2023-03-14T05:37:25;4.30;;;3.20;;
57319;SDS011;43158;51.026;18.190;2023-03-14T05:39:52;5.40;;;3.30;;
57319;SDS011;43158;51.026;18.190;2023-03-14T05:42:18;6.70;;;3.30;;
57319;SDS011;43158;51.026;18.190;2023-03-14T05:44:45;5.00;;;2.90;;
57319;SDS011;43158;51.026;18.190;2023-03-14T05:47:11;4.80;;;3.50;;
57319;SDS011;43158;51.026;18.190;2023-03-14T05:49:38;6.00;;;3.50;;
57319;SDS011;43158;51.026;18.190;2023-03-14T05:52:05;4.10;;;3.00;;
57319;SDS011;43158;51.026;18.190;2023-03-14T05:54:31;8.30;;;4.50;;
57319;SDS011;43158;51.026;18.190;2023-03-14T05:56:58;5.70;;;3.80;;
57319;SDS011;43158;51.026;18.190;2023-03-14T05:59:24;4.50;;;3.90;;
57319;SDS011;43158;51.026;18.190;2023-03-14T06:01:50;7.50;;;4.00;;
57319;SDS011;43158;51.026;18.190;2023-03-14T06:04:17;4.70;;;3.30;;
57319;SDS011;43158;51.026;18.190;2023-03-14T06:06:43;9.00;;;4.00;;
57319;SDS011;43158;51.026;18.190;2023-03-14T06:09:10;4.60;;;3.40;;
57319;SDS011;43158;51.026;18.190;2023-03-14T06:11:36;5.60;;;3.70;;
57319;SDS011;43158;51.026;18.190;2023-03-14T06:14:03;6.70;;;3.10;;
57319;SDS011;43158;51.026;18.190;2023-03-14T06:16:30;3.70;;;2.90;;
57319;SDS011;43158;51.026;18.190;2023-03-14T06:18:57;4.80;;;3.30;;
57319;SDS011;43158;51.026;18.190;2023-03-14T06:21:24;6.20;;;3.90;;
57319;SDS011;43158;51.026;18.190;2023-03-14T06:23:53;4.90;;;3.40;;
57319;SDS011;43158;51.026;18.190;2023-03-14T06:26:20;6.70;;;3.60;;
57319;SDS011;43158;51.026;18.190;2023-03-14T06:28:48;4.20;;;3.10;;
57319;SDS011;43158;51.026;18.190;2023-03-14T06:31:16;4.60;;;3.40;;
57319;SDS011;43158;51.026;18.190;2023-03-14T06:33:42;7.60;;;3.90;;
57319;SDS011;43158;51.026;18.190;2023-03-14T06:36:09;5.70;;;3.60;;
57319;SDS011;43158;51.026;18.190;2023-03-14T06:38:35;6.30;;;3.90;;
57319;SDS011;43158;51.026;18.190;2023-03-14T06:41:03;5.40;;;3.40;;
57319;SDS011;43158;51.026;18.190;2023-03-14T06:43:33;6.30;;;4.30;;
57319;SDS011;43158;51.026;18.190;2023-03-14T06:45:59;10.80;;;4.10;;
57319;SDS011;43158;51.026;18.190;2023-03-14T06:48:26;8.20;;;3.50;;
57319;SDS011;43158;51.026;18.190;2023-03-14T06:50:53;5.70;;;4.20;;
57319;SDS011;43158;51.026;18.190;2023-03-14T06:53:19;7.10;;;3.60;;
57319;SDS011;43158;51.026;18.190;2023-03-14T06:55:46;6.40;;;3.40;;
57319;SDS011;43158;51.026;18.190;2023-03-14T06:58:12;7.10;;;3.80;;
57319;SDS011;43158;51.026;18.190;2023-03-14T07:00:38;8.00;;;4.30;;
57319;SDS011;43158;51.026;18.190;2023-03-14T07:03:04;4.60;;;3.80;;
57319;SDS011;43158;51.026;18.190;2023-03-14T07:05:30;5.50;;;3.80;;
57319;SDS011;43158;51.026;18.190;2023-03-14T07:07:57;4.80;;;3.60;;
57319;SDS011;43158;51.026;18.190;2023-03-14T07:10:23;5.40;;;3.50;;
57319;SDS011;43158;51.026;18.190;2023-03-14T07:12:49;6.50;;;4.60;;
57319;SDS011;43158;51.026;18.190;2023-03-14T07:15:16;6.20;;;4.20;;
57319;SDS011;43158;51.026;18.190;2023-03-14T07:17:43;6.50;;;3.50;;
57319;SDS011;43158;51.026;18.190;2023-03-14T07:20:10;7.50;;;4.40;;
57319;SDS011;43158;51.026;18.190;2023-03-14T07:22:36;9.00;;;3.80;;
57319;SDS011;43158;51.026;18.190;2023-03-14T07:25:03;5.50;;;3.80;;
57319;SDS011;43158;51.026;18.190;2023-03-14T07:27:30;6.90;;;3.80;;
57319;SDS011;43158;51.026;18.190;2023-03-14T07:29:56;6.40;;;4.10;;
57319;SDS011;43158;51.026;18.190;2023-03-14T07:32:23;8.30;;;4.80;;
57319;SDS011;43158;51.026;18.190;2023-03-14T07:34:49;7.30;;;4.60;;
57319;SDS011;43158;51.026;18.190;2023-03-14T07:37:15;11.10;;;4.60;;
57319;SDS011;43158;51.026;18.190;2023-03-14T07:39:41;7.00;;;4.00;;
57319;SDS011;43158;51.026;18.190;2023-03-14T07:42:07;6.90;;;4.50;;
57319;SDS011;43158;51.026;18.190;2023-03-14T07:44:34;5.60;;;4.60;;
57319;SDS011;43158;51.026;18.190;2023-03-14T07:47:00;5.90;;;3.80;;
57319;SDS011;43158;51.026;18.190;2023-03-14T07:49:26;5.90;;;4.10;;
57319;SDS011;43158;51.026;18.190;2023-03-14T07:51:53;6.70;;;4.50;;
57319;SDS011;43158;51.026;18.190;2023-03-14T07:54:19;6.30;;;3.90;;
57319;SDS011;43158;51.026;18.190;2023-03-14T07:56:46;6.40;;;3.90;;
57319;SDS011;43158;51.026;18.190;2023-03-14T07:59:12;5.70;;;4.80;;
57319;SDS011;43158;51.026;18.190;2023-03-14T08:01:39;5.80;;;4.20;;
57319;SDS011;43158;51.026;18.190;2023-03-14T08:04:06;5.70;;;4.30;;
57319;SDS011;43158;51.026;18.190;2023-03-14T08:06:32;9.80;;;4.80;;
57319;SDS011;43158;51.026;18.190;2023-03-14T08:08:59;7.70;;;4.20;;
57319;SDS011;43158;51.026;18.190;2023-03-14T08:11:26;5.40;;;4.30;;
57319;SDS011;43158;51.026;18.190;2023-03-14T08:13:52;5.40;;;4.10;;
57319;SDS011;43158;51.026;18.190;2023-03-14T08:16:19;6.40;;;4.50;;
57319;SDS011;43158;51.026;18.190;2023-03-14T08:18:46;7.30;;;4.50;;
57319;SDS011;43158;51.026;18.190;2023-03-14T08:21:13;9.10;;;4.90;;
57319;SDS011;43158;51.026;18.190;2023-03-14T08:23:39;6.70;;;4.80;;
57319;SDS011;43158;51.026;18.190;2023-03-14T08:26:06;6.70;;;5.10;;
57319;SDS011;43158;51.026;18.190;2023-03-14T08:28:33;7.90;;;4.30;;
57319;SDS011;43158;51.026;18.190;2023-03-14T08:30:59;6.60;;;4.30;;
57319;SDS011;43158;51.026;18.190;2023-03-14T08:33:27;9.60;;;4.90;;
57319;SDS011;43158;51.026;18.190;2023-03-14T08:35:54;7.40;;;4.60;;
57319;SDS011;43158;51.026;18.190;2023-03-14T08:38:21;8.10;;;4.70;;
57319;SDS011;43158;51.026;18.190;2023-03-14T08:40:47;7.60;;;4.90;;
57319;SDS011;43158;51.026;18.190;2023-03-14T08:43:15;7.50;;;4.50;;
57319;SDS011;43158;51.026;18.190;2023-03-14T08:45:41;8.70;;;5.10;;
57319;SDS011;43158;51.026;18.190;2023-03-14T08:48:07;7.10;;;4.30;;
57319;SDS011;43158;51.026;18.190;2023-03-14T08:50:34;6.70;;;4.20;;
57319;SDS011;43158;51.026;18.190;2023-03-14T08:53:00;6.70;;;5.60;;
57319;SDS011;43158;51.026;18.190;2023-03-14T08:55:28;7.30;;;4.80;;
57319;SDS011;43158;51.026;18.190;2023-03-14T08:57:54;8.10;;;5.10;;
57319;SDS011;43158;51.026;18.190;2023-03-14T09:00:20;10.00;;;4.80;;
57319;SDS011;43158;51.026;18.190;2023-03-14T09:02:47;5.40;;;4.40;;
57319;SDS011;43158;51.026;18.190;2023-03-14T09:05:13;6.60;;;4.70;;
57319;SDS011;43158;51.026;18.190;2023-03-14T09:07:40;7.80;;;5.20;;
57319;SDS011;43158;51.026;18.190;2023-03-14T09:10:07;7.30;;;5.30;;
57319;SDS011;43158;51.026;18.190;2023-03-14T09:12:34;7.70;;;4.70;;
57319;SDS011;43158;51.026;18.190;2023-03-14T09:15:01;5.60;;;4.80;;
57319;SDS011;43158;51.026;18.190;2023-03-14T09:17:28;6.30;;;5.10;;
57319;SDS011;43158;51.026;18.190;2023-03-14T09:19:55;7.30;;;4.50;;
57319;SDS011;43158;51.026;18.190;2023-03-14T09:22:21;7.50;;;5.30;;
57319;SDS011;43158;51.026;18.190;2023-03-14T09:24:47;8.10;;;4.90;;
57319;SDS011;43158;51.026;18.190;2023-03-14T09:27:14;6.10;;;4.80;;
57319;SDS011;43158;51.026;18.190;2023-03-14T09:29:41;6.10;;;5.10;;
57319;SDS011;43158;51.026;18.190;2023-03-14T09:32:07;6.10;;;5.00;;
57319;SDS011;43158;51.026;18.190;2023-03-14T09:34:35;7.00;;;4.70;;
57319;SDS011;43158;51.026;18.190;2023-03-14T09:37:02;6.40;;;4.10;;
57319;SDS011;43158;51.026;18.190;2023-03-14T09:39:28;6.70;;;4.80;;
57319;SDS011;43158;51.026;18.190;2023-03-14T09:41:55;7.30;;;4.40;;
57319;SDS011;43158;51.026;18.190;2023-03-14T09:49:20;7.20;;;4.70;;
57319;SDS011;43158;51.026;18.190;2023-03-14T09:51:51;8.10;;;5.80;;
57319;SDS011;43158;51.026;18.190;2023-03-14T09:54:29;8.90;;;5.20;;
57319;SDS011;43158;51.026;18.190;2023-03-14T09:56:58;9.40;;;5.00;;
57319;SDS011;43158;51.026;18.190;2023-03-14T09:59:25;6.80;;;5.20;;
57319;SDS011;43158;51.026;18.190;2023-03-14T10:01:52;7.40;;;5.90;;
57319;SDS011;43158;51.026;18.190;2023-03-14T10:04:20;10.50;;;5.60;;
57319;SDS011;43158;51.026;18.190;2023-03-14T10:06:50;8.40;;;5.40;;
57319;SDS011;43158;51.026;18.190;2023-03-14T10:09:21;10.70;;;6.90;;
57319;SDS011;43158;51.026;18.190;2023-03-14T10:11:53;7.90;;;5.20;;
57319;SDS011;43158;51.026;18.190;2023-03-14T10:14:35;8.40;;;6.00;;
57319;SDS011;43158;51.026;18.190;2023-03-14T10:17:11;13.20;;;7.10;;
57319;SDS011;43158;51.026;18.190;2023-03-14T10:19:52;10.10;;;6.30;;
57319;SDS011;43158;51.026;18.190;2023-03-14T10:22:26;10.30;;;6.70;;
57319;SDS011;43158;51.026;18.190;2023-03-14T10:24:56;8.40;;;6.80;;
57319;SDS011;43158;51.026;18.190;2023-03-14T10:27:30;9.20;;;7.30;;
57319;SDS011;43158;51.026;18.190;2023-03-14T10:29:59;10.80;;;6.70;;
57319;SDS011;43158;51.026;18.190;2023-03-14T10:32:33;8.50;;;7.10;;
57319;SDS011;43158;51.026;18.190;2023-03-14T10:35:17;10.40;;;5.60;;
57319;SDS011;43158;51.026;18.190;2023-03-14T10:37:53;7.30;;;6.30;;
57319;SDS011;43158;51.026;18.190;2023-03-14T10:40:29;9.00;;;6.80;;
57319;SDS011;43158;51.026;18.190;2023-03-14T10:42:58;9.50;;;7.50;;
57319;SDS011;43158;51.026;18.190;2023-03-14T10:45:32;10.80;;;7.30;;
57319;SDS011;43158;51.026;18.190;2023-03-14T10:48:05;14.20;;;8.40;;
57319;SDS011;43158;51.026;18.190;2023-03-14T10:53:25;11.80;;;8.50;;
57319;SDS011;43158;51.026;18.190;2023-03-14T10:55:55;8.50;;;7.00;;
57319;SDS011;43158;51.026;18.190;2023-03-14T11:01:00;7.30;;;6.10;;
57319;SDS011;43158;51.026;18.190;2023-03-14T11:03:34;6.80;;;6.00;;
57319;SDS011;43158;51.026;18.190;2023-03-14T11:06:10;9.80;;;7.90;;
57319;SDS011;43158;51.026;18.190;2023-03-14T11:11:20;11.30;;;8.70;;
57319;SDS011;43158;51.026;18.190;2023-03-14T11:17:07;9.70;;;8.50;;
57319;SDS011;43158;51.026;18.190;2023-03-14T11:25:18;11.50;;;9.10;;
57319;SDS011;43158;51.026;18.190;2023-03-14T11:27:55;12.10;;;8.90;;
57319;SDS011;43158;51.026;18.190;2023-03-14T11:32:59;11.50;;;8.30;;
57319;SDS011;43158;51.026;18.190;2023-03-14T11:35:30;13.00;;;8.20;;
57319;SDS011;43158;51.026;18.190;2023-03-14T11:40:39;12.20;;;9.40;;
57319;SDS011;43158;51.026;18.190;2023-03-14T11:43:12;13.10;;;8.40;;
57319;SDS011;43158;51.026;18.190;2023-03-14T11:45:41;9.20;;;8.20;;
57319;SDS011;43158;51.026;18.190;2023-03-14T11:48:16;8.80;;;7.90;;
57319;SDS011;43158;51.026;18.190;2023-03-14T11:50:49;7.90;;;7.10;;
57319;SDS011;43158;51.026;18.190;2023-03-14T11:55:50;8.40;;;7.50;;
57319;SDS011;43158;51.026;18.190;2023-03-14T11:58:20;7.50;;;6.70;;
57319;SDS011;43158;51.026;18.190;2023-03-14T12:00:51;9.20;;;8.20;;
57319;SDS011;43158;51.026;18.190;2023-03-14T12:06:16;8.70;;;7.80;;
57319;SDS011;43158;51.026;18.190;2023-03-14T12:08:50;9.20;;;6.90;;
57319;SDS011;43158;51.026;18.190;2023-03-14T12:11:21;9.70;;;7.40;;
57319;SDS011;43158;51.026;18.190;2023-03-14T12:13:49;9.10;;;7.20;;
57319;SDS011;43158;51.026;18.190;2023-03-14T12:18:49;8.70;;;7.70;;
57319;SDS011;43158;51.026;18.190;2023-03-14T12:21:16;8.20;;;7.20;;
57319;SDS011;43158;51.026;18.190;2023-03-14T12:23:44;19.20;;;11.20;;
57319;SDS011;43158;51.026;18.190;2023-03-14T12:28:39;14.10;;;9.50;;
57319;SDS011;43158;51.026;18.190;2023-03-14T12:34:04;11.60;;;9.00;;
57319;SDS011;43158;51.026;18.190;2023-03-14T12:42:04;8.90;;;7.70;;
57319;SDS011;43158;51.026;18.190;2023-03-14T12:44:50;11.20;;;8.80;;
57319;SDS011;43158;51.026;18.190;2023-03-14T12:49:48;11.70;;;8.40;;
57319;SDS011;43158;51.026;18.190;2023-03-14T12:52:20;10.70;;;8.30;;
57319;SDS011;43158;51.026;18.190;2023-03-14T12:57:45;11.00;;;7.30;;
57319;SDS011;43158;51.026;18.190;2023-03-14T13:00:20;10.10;;;8.80;;
57319;SDS011;43158;51.026;18.190;2023-03-14T13:02:49;10.20;;;8.80;;
57319;SDS011;43158;51.026;18.190;2023-03-14T13:05:20;9.60;;;8.10;;
57319;SDS011;43158;51.026;18.190;2023-03-14T13:10:21;9.80;;;8.80;;
57319;SDS011;43158;51.026;18.190;2023-03-14T13:17:59;11.10;;;8.70;;
57319;SDS011;43158;51.026;18.190;2023-03-14T13:20:51;10.40;;;9.40;;
57319;SDS011;43158;51.026;18.190;2023-03-14T13:23:24;9.90;;;8.40;;
57319;SDS011;43158;51.026;18.190;2023-03-14T13:25:52;8.90;;;7.80;;
57319;SDS011;43158;51.026;18.190;2023-03-14T13:28:19;9.20;;;8.30;;
57319;SDS011;43158;51.026;18.190;2023-03-14T13:30:46;11.00;;;7.70;;
57319;SDS011;43158;51.026;18.190;2023-03-14T13:33:18;10.00;;;8.50;;
57319;SDS011;43158;51.026;18.190;2023-03-14T13:35:46;10.60;;;7.20;;
57319;SDS011;43158;51.026;18.190;2023-03-14T13:38:27;8.80;;;7.90;;
57319;SDS011;43158;51.026;18.190;2023-03-14T13:40:55;10.00;;;8.10;;
57319;SDS011;43158;51.026;18.190;2023-03-14T13:43:41;7.90;;;7.20;;
57319;SDS011;43158;51.026;18.190;2023-03-14T13:46:16;8.50;;;7.50;;
57319;SDS011;43158;51.026;18.190;2023-03-14T13:48:48;8.70;;;7.90;;
57319;SDS011;43158;51.026;18.190;2023-03-14T13:51:19;10.10;;;8.30;;
57319;SDS011;43158;51.026;18.190;2023-03-14T13:53:47;9.40;;;7.30;;
57319;SDS011;43158;51.026;18.190;2023-03-14T13:56:15;9.30;;;8.10;;
57319;SDS011;43158;51.026;18.190;2023-03-14T13:58:45;9.20;;;8.00;;
57319;SDS011;43158;51.026;18.190;2023-03-14T14:01:13;9.40;;;8.50;;
57319;SDS011;43158;51.026;18.190;2023-03-14T14:03:45;9.40;;;8.30;;
57319;SDS011;43158;51.026;18.190;2023-03-14T14:08:56;9.20;;;8.20;;
57319;SDS011;43158;51.026;18.190;2023-03-14T14:11:36;13.10;;;9.30;;
57319;SDS011;43158;51.026;18.190;2023-03-14T14:14:08;9.30;;;8.00;;
57319;SDS011;43158;51.026;18.190;2023-03-14T14:16:41;12.00;;;8.40;;
57319;SDS011;43158;51.026;18.190;2023-03-14T14:19:09;11.60;;;9.00;;
57319;SDS011;43158;51.026;18.190;2023-03-14T14:21:37;14.10;;;9.00;;
57319;SDS011;43158;51.026;18.190;2023-03-14T14:24:03;11.10;;;9.70;;
57319;SDS011;43158;51.026;18.190;2023-03-14T14:26:30;10.30;;;9.30;;
57319;SDS011;43158;51.026;18.190;2023-03-14T14:29:04;10.70;;;9.60;;
57319;SDS011;43158;51.026;18.190;2023-03-14T14:31:31;12.00;;;9.60;;
57319;SDS011;43158;51.026;18.190;2023-03-14T14:34:01;8.90;;;8.00;;
57319;SDS011;43158;51.026;18.190;2023-03-14T14:36:36;10.00;;;8.00;;
57319;SDS011;43158;51.026;18.190;2023-03-14T14:39:05;9.80;;;8.80;;
57319;SDS011;43158;51.026;18.190;2023-03-14T14:41:39;11.40;;;8.90;;
57319;SDS011;43158;51.026;18.190;2023-03-14T14:44:07;9.40;;;8.30;;
57319;SDS011;43158;51.026;18.190;2023-03-14T14:46:34;9.00;;;8.20;;
57319;SDS011;43158;51.026;18.190;2023-03-14T14:49:06;10.50;;;8.60;;
57319;SDS011;43158;51.026;18.190;2023-03-14T14:51:43;10.20;;;7.80;;
57319;SDS011;43158;51.026;18.190;2023-03-14T14:54:33;9.00;;;8.00;;
57319;SDS011;43158;51.026;18.190;2023-03-14T14:57:02;11.80;;;9.20;;
57319;SDS011;43158;51.026;18.190;2023-03-14T14:59:30;8.80;;;7.70;;
57319;SDS011;43158;51.026;18.190;2023-03-14T15:01:58;10.90;;;8.70;;
57319;SDS011;43158;51.026;18.190;2023-03-14T15:04:26;11.00;;;9.60;;
57319;SDS011;43158;51.026;18.190;2023-03-14T15:06:53;10.80;;;9.70;;
57319;SDS011;43158;51.026;18.190;2023-03-14T15:09:19;17.20;;;8.80;;
57319;SDS011;43158;51.026;18.190;2023-03-14T15:11:46;11.70;;;10.50;;
57319;SDS011;43158;51.026;18.190;2023-03-14T15:14:13;10.30;;;9.10;;
57319;SDS011;43158;51.026;18.190;2023-03-14T15:16:40;13.10;;;10.50;;
57319;SDS011;43158;51.026;18.190;2023-03-14T15:19:11;12.60;;;9.90;;
57319;SDS011;43158;51.026;18.190;2023-03-14T15:21:41;10.70;;;9.40;;
57319;SDS011;43158;51.026;18.190;2023-03-14T15:24:08;10.50;;;8.60;;
57319;SDS011;43158;51.026;18.190;2023-03-14T15:26:35;11.20;;;8.00;;
57319;SDS011;43158;51.026;18.190;2023-03-14T15:29:02;11.40;;;9.10;;
57319;SDS011;43158;51.026;18.190;2023-03-14T15:31:34;8.80;;;7.00;;
57319;SDS011;43158;51.026;18.190;2023-03-14T15:34:01;10.60;;;9.50;;
57319;SDS011;43158;51.026;18.190;2023-03-14T15:36:29;11.30;;;9.20;;
57319;SDS011;43158;51.026;18.190;2023-03-14T15:38:57;9.30;;;8.40;;
57319;SDS011;43158;51.026;18.190;2023-03-14T15:41:24;11.10;;;8.60;;
57319;SDS011;43158;51.026;18.190;2023-03-14T15:43:50;11.60;;;9.10;;
57319;SDS011;43158;51.026;18.190;2023-03-14T15:46:17;11.50;;;8.80;;